メインページ
METAR-TAF:

METAR-TAF

空港 :

ベイルート, レバノン

緯度: 33-49N, 経度: 035-29E, 海抜: 29m

METAR: 見つかりません

時間: 15:11 (12:11 UTC)

予報

当レポートは2時間11分前の10:00(UTC)に作成
予報は24日の 12時(UTC)から 25日の 18時(UTC)まで有効
北西の風 10kt
視程: 5000m
高度3000ftの雲はほとんどない
24日の 14時(UTC)から 24日の 16時(UTC)まで徐々に
視程: 7000m
24日の 22時(UTC)から 24日の 24時(UTC)まで徐々に
の風 4kt
視程: 8000m
高度2600ftの雲は散在している
25日の 06時(UTC)から 25日の 08時(UTC)まで徐々に
西/北西の風 10kt
25日の 06時(UTC)から 25日の 16時(UTC)まで一時的に
視程: 5000m

TAF: OLBA 241000Z 2412/2518 32010KT 5000 BR FEW030 BECMG 2414/2416 7000 BECMG 2422/2424 10004KT 8000 SCT026 BECMG 2506/2508 30010KT TEMPO 2506/2516 5000 BR

4,000以上の空港の気象観測と天気予報(METAR報とTAF報)

利用可能な観測所は地図上に黄色い丸と赤い丸で示す。

丸の上にカーソルを重ねると観測所名を参照できる。

次にクリックすると気象観測と天気予報を参照できる。

マップの切り替え:黒色「×」印の緑ボタンをクリックして拡大、「-」印の緑ボタンをクリックして縮小、緑色の三角印をクリックして隣りの地図に切り替え


METAR-TAF: